sensor_id;sensor_type;location;lat;lon;timestamp;P1;durP1;ratioP1;P2;durP2;ratioP2
13083;SDS011;6608;48.790;9.198;2022-09-09T00:02:02;165.10;;;62.70;;
13083;SDS011;6608;48.790;9.198;2022-09-09T00:04:33;162.93;;;62.27;;
13083;SDS011;6608;48.790;9.198;2022-09-09T00:07:01;160.03;;;62.53;;
13083;SDS011;6608;48.790;9.198;2022-09-09T00:09:30;163.53;;;62.57;;
13083;SDS011;6608;48.790;9.198;2022-09-09T00:11:58;161.57;;;62.17;;
13083;SDS011;6608;48.790;9.198;2022-09-09T00:14:31;159.80;;;62.23;;
13083;SDS011;6608;48.790;9.198;2022-09-09T00:17:01;156.97;;;61.50;;
13083;SDS011;6608;48.790;9.198;2022-09-09T00:19:30;158.53;;;61.27;;
13083;SDS011;6608;48.790;9.198;2022-09-09T00:22:02;162.60;;;62.00;;
13083;SDS011;6608;48.790;9.198;2022-09-09T00:24:36;160.97;;;62.03;;
13083;SDS011;6608;48.790;9.198;2022-09-09T00:27:06;160.10;;;62.20;;
13083;SDS011;6608;48.790;9.198;2022-09-09T00:29:35;161.10;;;61.83;;
13083;SDS011;6608;48.790;9.198;2022-09-09T00:32:09;159.37;;;62.03;;
13083;SDS011;6608;48.790;9.198;2022-09-09T00:34:37;159.57;;;61.90;;
13083;SDS011;6608;48.790;9.198;2022-09-09T00:37:09;160.07;;;62.03;;
13083;SDS011;6608;48.790;9.198;2022-09-09T00:39:36;163.97;;;61.67;;
13083;SDS011;6608;48.790;9.198;2022-09-09T00:42:10;160.97;;;61.83;;
13083;SDS011;6608;48.790;9.198;2022-09-09T00:44:38;160.07;;;61.53;;
13083;SDS011;6608;48.790;9.198;2022-09-09T00:47:18;161.00;;;61.87;;
13083;SDS011;6608;48.790;9.198;2022-09-09T00:49:51;161.33;;;61.90;;
13083;SDS011;6608;48.790;9.198;2022-09-09T00:52:26;161.20;;;62.77;;
13083;SDS011;6608;48.790;9.198;2022-09-09T00:54:57;161.53;;;62.17;;
13083;SDS011;6608;48.790;9.198;2022-09-09T00:57:27;158.87;;;62.73;;
13083;SDS011;6608;48.790;9.198;2022-09-09T00:59:58;159.83;;;62.20;;
13083;SDS011;6608;48.790;9.198;2022-09-09T01:02:29;160.23;;;62.57;;
13083;SDS011;6608;48.790;9.198;2022-09-09T01:05:00;158.07;;;62.17;;
13083;SDS011;6608;48.790;9.198;2022-09-09T01:07:29;159.00;;;63.07;;
13083;SDS011;6608;48.790;9.198;2022-09-09T01:09:57;162.47;;;62.57;;
13083;SDS011;6608;48.790;9.198;2022-09-09T01:12:35;159.63;;;62.77;;
13083;SDS011;6608;48.790;9.198;2022-09-09T01:15:07;160.47;;;62.47;;
13083;SDS011;6608;48.790;9.198;2022-09-09T01:17:36;160.83;;;63.30;;
13083;SDS011;6608;48.790;9.198;2022-09-09T01:20:06;161.17;;;62.40;;
13083;SDS011;6608;48.790;9.198;2022-09-09T01:22:35;161.87;;;63.30;;
13083;SDS011;6608;48.790;9.198;2022-09-09T01:25:18;159.20;;;62.20;;
13083;SDS011;6608;48.790;9.198;2022-09-09T01:27:47;161.30;;;62.63;;
13083;SDS011;6608;48.790;9.198;2022-09-09T01:30:15;161.13;;;62.03;;
13083;SDS011;6608;48.790;9.198;2022-09-09T01:32:42;161.53;;;63.00;;
13083;SDS011;6608;48.790;9.198;2022-09-09T01:35:10;159.37;;;62.37;;
13083;SDS011;6608;48.790;9.198;2022-09-09T01:37:37;160.17;;;63.73;;
13083;SDS011;6608;48.790;9.198;2022-09-09T01:40:03;159.33;;;62.20;;
13083;SDS011;6608;48.790;9.198;2022-09-09T01:42:30;161.03;;;62.97;;
13083;SDS011;6608;48.790;9.198;2022-09-09T01:44:58;160.23;;;61.83;;
13083;SDS011;6608;48.790;9.198;2022-09-09T01:47:24;160.17;;;61.90;;
13083;SDS011;6608;48.790;9.198;2022-09-09T01:49:51;160.17;;;61.87;;
13083;SDS011;6608;48.790;9.198;2022-09-09T01:52:17;160.90;;;62.17;;
13083;SDS011;6608;48.790;9.198;2022-09-09T01:54:44;162.10;;;61.70;;
13083;SDS011;6608;48.790;9.198;2022-09-09T01:57:11;160.33;;;62.57;;
13083;SDS011;6608;48.790;9.198;2022-09-09T01:59:52;157.80;;;61.63;;
13083;SDS011;6608;48.790;9.198;2022-09-09T02:02:22;159.20;;;62.37;;
13083;SDS011;6608;48.790;9.198;2022-09-09T02:04:50;159.07;;;61.87;;
13083;SDS011;6608;48.790;9.198;2022-09-09T02:07:26;158.33;;;62.17;;
13083;SDS011;6608;48.790;9.198;2022-09-09T02:09:56;158.07;;;62.10;;
13083;SDS011;6608;48.790;9.198;2022-09-09T02:12:23;161.33;;;62.60;;
13083;SDS011;6608;48.790;9.198;2022-09-09T02:14:52;160.50;;;62.30;;
13083;SDS011;6608;48.790;9.198;2022-09-09T02:17:23;161.17;;;62.50;;
13083;SDS011;6608;48.790;9.198;2022-09-09T02:19:51;158.97;;;62.27;;
13083;SDS011;6608;48.790;9.198;2022-09-09T02:22:21;160.13;;;62.13;;
13083;SDS011;6608;48.790;9.198;2022-09-09T02:24:48;158.57;;;62.43;;
13083;SDS011;6608;48.790;9.198;2022-09-09T02:27:17;162.13;;;62.80;;
13083;SDS011;6608;48.790;9.198;2022-09-09T02:29:44;162.73;;;63.10;;
13083;SDS011;6608;48.790;9.198;2022-09-09T02:32:12;161.40;;;62.23;;
13083;SDS011;6608;48.790;9.198;2022-09-09T02:34:42;159.23;;;62.53;;
13083;SDS011;6608;48.790;9.198;2022-09-09T02:37:09;158.97;;;62.03;;
13083;SDS011;6608;48.790;9.198;2022-09-09T02:39:36;158.60;;;61.87;;
13083;SDS011;6608;48.790;9.198;2022-09-09T02:42:03;159.67;;;61.73;;
13083;SDS011;6608;48.790;9.198;2022-09-09T02:44:30;158.13;;;61.83;;
13083;SDS011;6608;48.790;9.198;2022-09-09T02:47:01;157.93;;;61.87;;
13083;SDS011;6608;48.790;9.198;2022-09-09T02:49:34;158.20;;;61.60;;
13083;SDS011;6608;48.790;9.198;2022-09-09T02:52:07;158.63;;;62.10;;
13083;SDS011;6608;48.790;9.198;2022-09-09T02:54:34;159.00;;;62.07;;
13083;SDS011;6608;48.790;9.198;2022-09-09T02:57:01;158.30;;;62.40;;
13083;SDS011;6608;48.790;9.198;2022-09-09T02:59:29;159.17;;;62.03;;
13083;SDS011;6608;48.790;9.198;2022-09-09T03:01:55;157.70;;;61.80;;
13083;SDS011;6608;48.790;9.198;2022-09-09T03:04:22;157.90;;;61.90;;
13083;SDS011;6608;48.790;9.198;2022-09-09T03:06:49;157.87;;;61.67;;
13083;SDS011;6608;48.790;9.198;2022-09-09T03:09:17;158.23;;;61.43;;
13083;SDS011;6608;48.790;9.198;2022-09-09T03:11:44;159.67;;;61.63;;
13083;SDS011;6608;48.790;9.198;2022-09-09T03:14:10;157.53;;;61.80;;
13083;SDS011;6608;48.790;9.198;2022-09-09T03:16:37;158.37;;;61.77;;
13083;SDS011;6608;48.790;9.198;2022-09-09T03:19:03;156.67;;;61.30;;
13083;SDS011;6608;48.790;9.198;2022-09-09T03:21:31;158.20;;;61.63;;
13083;SDS011;6608;48.790;9.198;2022-09-09T03:23:57;158.17;;;62.13;;
13083;SDS011;6608;48.790;9.198;2022-09-09T03:26:25;160.30;;;62.03;;
13083;SDS011;6608;48.790;9.198;2022-09-09T03:28:51;160.10;;;61.93;;
13083;SDS011;6608;48.790;9.198;2022-09-09T03:31:18;157.40;;;62.03;;
13083;SDS011;6608;48.790;9.198;2022-09-09T03:33:44;156.37;;;61.47;;
13083;SDS011;6608;48.790;9.198;2022-09-09T03:36:11;159.03;;;61.50;;
13083;SDS011;6608;48.790;9.198;2022-09-09T03:38:37;155.77;;;61.40;;
13083;SDS011;6608;48.790;9.198;2022-09-09T03:41:04;159.43;;;61.63;;
13083;SDS011;6608;48.790;9.198;2022-09-09T03:43:32;158.90;;;61.70;;
13083;SDS011;6608;48.790;9.198;2022-09-09T03:45:58;160.77;;;62.97;;
13083;SDS011;6608;48.790;9.198;2022-09-09T03:48:25;158.43;;;61.93;;
13083;SDS011;6608;48.790;9.198;2022-09-09T03:50:53;157.03;;;61.73;;
13083;SDS011;6608;48.790;9.198;2022-09-09T03:53:21;157.67;;;63.00;;
13083;SDS011;6608;48.790;9.198;2022-09-09T03:55:48;156.47;;;61.77;;
13083;SDS011;6608;48.790;9.198;2022-09-09T03:58:15;158.97;;;62.10;;
13083;SDS011;6608;48.790;9.198;2022-09-09T04:00:47;158.37;;;61.50;;
13083;SDS011;6608;48.790;9.198;2022-09-09T04:03:18;156.20;;;61.40;;
13083;SDS011;6608;48.790;9.198;2022-09-09T04:05:44;159.30;;;61.17;;
13083;SDS011;6608;48.790;9.198;2022-09-09T04:08:11;156.40;;;61.80;;
13083;SDS011;6608;48.790;9.198;2022-09-09T04:10:37;156.60;;;61.30;;
13083;SDS011;6608;48.790;9.198;2022-09-09T04:13:04;155.83;;;61.37;;
13083;SDS011;6608;48.790;9.198;2022-09-09T04:15:30;156.90;;;61.50;;
13083;SDS011;6608;48.790;9.198;2022-09-09T04:17:58;156.97;;;61.50;;
13083;SDS011;6608;48.790;9.198;2022-09-09T04:20:25;157.90;;;61.50;;
13083;SDS011;6608;48.790;9.198;2022-09-09T04:22:52;158.43;;;61.50;;
13083;SDS011;6608;48.790;9.198;2022-09-09T04:25:18;158.93;;;61.43;;
13083;SDS011;6608;48.790;9.198;2022-09-09T04:27:45;159.77;;;62.93;;
13083;SDS011;6608;48.790;9.198;2022-09-09T04:30:12;159.40;;;61.60;;
13083;SDS011;6608;48.790;9.198;2022-09-09T04:32:38;156.77;;;61.07;;
13083;SDS011;6608;48.790;9.198;2022-09-09T04:35:07;156.63;;;61.67;;
13083;SDS011;6608;48.790;9.198;2022-09-09T04:37:33;155.60;;;61.60;;
13083;SDS011;6608;48.790;9.198;2022-09-09T04:40:00;158.07;;;62.57;;
13083;SDS011;6608;48.790;9.198;2022-09-09T04:42:27;157.83;;;62.00;;
13083;SDS011;6608;48.790;9.198;2022-09-09T04:44:53;159.80;;;62.53;;
13083;SDS011;6608;48.790;9.198;2022-09-09T04:47:20;164.87;;;63.53;;
13083;SDS011;6608;48.790;9.198;2022-09-09T04:49:46;158.90;;;62.43;;
13083;SDS011;6608;48.790;9.198;2022-09-09T04:52:14;159.27;;;62.17;;
13083;SDS011;6608;48.790;9.198;2022-09-09T04:54:42;159.00;;;62.03;;
13083;SDS011;6608;48.790;9.198;2022-09-09T04:57:10;160.57;;;62.40;;
13083;SDS011;6608;48.790;9.198;2022-09-09T04:59:36;155.63;;;61.47;;
13083;SDS011;6608;48.790;9.198;2022-09-09T05:02:04;161.47;;;62.43;;
13083;SDS011;6608;48.790;9.198;2022-09-09T05:04:30;159.10;;;61.90;;
13083;SDS011;6608;48.790;9.198;2022-09-09T05:06:58;158.30;;;63.70;;
13083;SDS011;6608;48.790;9.198;2022-09-09T05:09:26;160.43;;;63.07;;
13083;SDS011;6608;48.790;9.198;2022-09-09T05:11:52;163.53;;;62.53;;
13083;SDS011;6608;48.790;9.198;2022-09-09T05:14:19;159.77;;;62.60;;
13083;SDS011;6608;48.790;9.198;2022-09-09T05:16:46;157.47;;;61.63;;
13083;SDS011;6608;48.790;9.198;2022-09-09T05:19:14;159.13;;;61.33;;
13083;SDS011;6608;48.790;9.198;2022-09-09T05:21:44;157.03;;;61.43;;
13083;SDS011;6608;48.790;9.198;2022-09-09T05:24:10;159.47;;;62.20;;
13083;SDS011;6608;48.790;9.198;2022-09-09T05:26:38;158.60;;;62.33;;
13083;SDS011;6608;48.790;9.198;2022-09-09T05:29:05;157.67;;;62.47;;
13083;SDS011;6608;48.790;9.198;2022-09-09T05:31:31;158.37;;;61.93;;
13083;SDS011;6608;48.790;9.198;2022-09-09T05:33:58;158.43;;;62.17;;
13083;SDS011;6608;48.790;9.198;2022-09-09T05:36:24;155.70;;;61.67;;
13083;SDS011;6608;48.790;9.198;2022-09-09T05:38:51;157.63;;;62.63;;
13083;SDS011;6608;48.790;9.198;2022-09-09T05:41:18;160.57;;;61.73;;
13083;SDS011;6608;48.790;9.198;2022-09-09T05:43:46;163.17;;;63.10;;
13083;SDS011;6608;48.790;9.198;2022-09-09T05:46:14;159.07;;;63.57;;
13083;SDS011;6608;48.790;9.198;2022-09-09T05:48:41;161.03;;;64.80;;
13083;SDS011;6608;48.790;9.198;2022-09-09T05:51:09;159.20;;;62.20;;
13083;SDS011;6608;48.790;9.198;2022-09-09T05:53:35;161.33;;;63.00;;
13083;SDS011;6608;48.790;9.198;2022-09-09T05:56:03;162.47;;;62.77;;
13083;SDS011;6608;48.790;9.198;2022-09-09T05:58:29;159.47;;;62.90;;
13083;SDS011;6608;48.790;9.198;2022-09-09T06:01:04;159.90;;;62.67;;
13083;SDS011;6608;48.790;9.198;2022-09-09T06:03:31;162.53;;;62.90;;
13083;SDS011;6608;48.790;9.198;2022-09-09T06:05:58;159.97;;;63.40;;
13083;SDS011;6608;48.790;9.198;2022-09-09T06:08:25;162.07;;;64.40;;
13083;SDS011;6608;48.790;9.198;2022-09-09T06:11:00;166.70;;;63.63;;
13083;SDS011;6608;48.790;9.198;2022-09-09T06:13:27;159.37;;;63.07;;
13083;SDS011;6608;48.790;9.198;2022-09-09T06:15:54;166.40;;;64.23;;
13083;SDS011;6608;48.790;9.198;2022-09-09T06:18:22;161.87;;;64.33;;
13083;SDS011;6608;48.790;9.198;2022-09-09T06:20:55;159.90;;;62.87;;
13083;SDS011;6608;48.790;9.198;2022-09-09T06:23:21;163.13;;;64.33;;
13083;SDS011;6608;48.790;9.198;2022-09-09T06:25:48;162.57;;;65.97;;
13083;SDS011;6608;48.790;9.198;2022-09-09T06:28:15;159.97;;;64.77;;
13083;SDS011;6608;48.790;9.198;2022-09-09T06:30:42;160.00;;;63.87;;
13083;SDS011;6608;48.790;9.198;2022-09-09T06:33:09;159.60;;;64.00;;
13083;SDS011;6608;48.790;9.198;2022-09-09T06:35:37;163.73;;;63.10;;
13083;SDS011;6608;48.790;9.198;2022-09-09T06:38:03;159.70;;;63.17;;
13083;SDS011;6608;48.790;9.198;2022-09-09T06:40:30;158.70;;;63.60;;
13083;SDS011;6608;48.790;9.198;2022-09-09T06:42:59;160.33;;;63.93;;
13083;SDS011;6608;48.790;9.198;2022-09-09T06:45:25;163.70;;;64.83;;
13083;SDS011;6608;48.790;9.198;2022-09-09T06:47:54;160.87;;;64.90;;
13083;SDS011;6608;48.790;9.198;2022-09-09T06:50:20;162.47;;;65.50;;
13083;SDS011;6608;48.790;9.198;2022-09-09T06:52:48;160.70;;;63.60;;
13083;SDS011;6608;48.790;9.198;2022-09-09T06:55:14;164.33;;;67.03;;
13083;SDS011;6608;48.790;9.198;2022-09-09T06:57:42;165.97;;;64.97;;
13083;SDS011;6608;48.790;9.198;2022-09-09T07:00:09;163.87;;;64.20;;
13083;SDS011;6608;48.790;9.198;2022-09-09T07:02:37;162.50;;;64.60;;
13083;SDS011;6608;48.790;9.198;2022-09-09T07:05:07;162.03;;;64.83;;
13083;SDS011;6608;48.790;9.198;2022-09-09T07:07:34;169.57;;;65.83;;
13083;SDS011;6608;48.790;9.198;2022-09-09T07:10:03;161.37;;;63.97;;
13083;SDS011;6608;48.790;9.198;2022-09-09T07:12:30;164.30;;;65.27;;
13083;SDS011;6608;48.790;9.198;2022-09-09T07:14:56;164.93;;;65.57;;
13083;SDS011;6608;48.790;9.198;2022-09-09T07:17:23;164.13;;;64.63;;
13083;SDS011;6608;48.790;9.198;2022-09-09T07:19:49;165.37;;;64.90;;
13083;SDS011;6608;48.790;9.198;2022-09-09T07:22:15;162.17;;;64.60;;
13083;SDS011;6608;48.790;9.198;2022-09-09T07:24:42;164.20;;;65.70;;
13083;SDS011;6608;48.790;9.198;2022-09-09T07:27:11;163.43;;;64.77;;
13083;SDS011;6608;48.790;9.198;2022-09-09T07:29:37;165.37;;;67.87;;
13083;SDS011;6608;48.790;9.198;2022-09-09T07:32:04;167.17;;;67.80;;
13083;SDS011;6608;48.790;9.198;2022-09-09T07:34:30;165.00;;;66.90;;
13083;SDS011;6608;48.790;9.198;2022-09-09T07:36:57;164.10;;;65.63;;
13083;SDS011;6608;48.790;9.198;2022-09-09T07:39:23;164.43;;;66.60;;
13083;SDS011;6608;48.790;9.198;2022-09-09T07:41:49;162.57;;;64.70;;
13083;SDS011;6608;48.790;9.198;2022-09-09T07:44:18;170.47;;;66.33;;
13083;SDS011;6608;48.790;9.198;2022-09-09T07:46:46;164.10;;;65.43;;
13083;SDS011;6608;48.790;9.198;2022-09-09T07:49:13;170.57;;;68.23;;
13083;SDS011;6608;48.790;9.198;2022-09-09T07:51:40;167.93;;;66.83;;
13083;SDS011;6608;48.790;9.198;2022-09-09T07:54:07;172.83;;;65.87;;
13083;SDS011;6608;48.790;9.198;2022-09-09T07:56:35;169.73;;;67.33;;
13083;SDS011;6608;48.790;9.198;2022-09-09T07:59:02;165.17;;;65.93;;
13083;SDS011;6608;48.790;9.198;2022-09-09T08:01:31;171.10;;;67.57;;
13083;SDS011;6608;48.790;9.198;2022-09-09T08:03:59;166.83;;;66.97;;
13083;SDS011;6608;48.790;9.198;2022-09-09T08:06:26;167.60;;;65.97;;
13083;SDS011;6608;48.790;9.198;2022-09-09T08:08:53;168.30;;;67.23;;
13083;SDS011;6608;48.790;9.198;2022-09-09T08:11:20;168.17;;;67.20;;
13083;SDS011;6608;48.790;9.198;2022-09-09T08:13:48;166.63;;;67.47;;
13083;SDS011;6608;48.790;9.198;2022-09-09T08:16:16;167.87;;;67.73;;
13083;SDS011;6608;48.790;9.198;2022-09-09T08:18:44;170.13;;;68.63;;
13083;SDS011;6608;48.790;9.198;2022-09-09T08:21:11;167.77;;;67.60;;
13083;SDS011;6608;48.790;9.198;2022-09-09T08:23:38;170.27;;;67.40;;
13083;SDS011;6608;48.790;9.198;2022-09-09T08:26:05;169.60;;;66.93;;
13083;SDS011;6608;48.790;9.198;2022-09-09T08:28:31;172.27;;;68.93;;
13083;SDS011;6608;48.790;9.198;2022-09-09T08:31:04;169.10;;;67.43;;
13083;SDS011;6608;48.790;9.198;2022-09-09T08:33:30;173.03;;;67.47;;
13083;SDS011;6608;48.790;9.198;2022-09-09T08:35:59;167.53;;;67.17;;
13083;SDS011;6608;48.790;9.198;2022-09-09T08:38:25;172.30;;;68.67;;
13083;SDS011;6608;48.790;9.198;2022-09-09T08:40:52;169.80;;;68.57;;
13083;SDS011;6608;48.790;9.198;2022-09-09T08:43:24;169.90;;;68.90;;
13083;SDS011;6608;48.790;9.198;2022-09-09T08:45:55;168.00;;;68.10;;
13083;SDS011;6608;48.790;9.198;2022-09-09T08:48:28;168.57;;;67.60;;
13083;SDS011;6608;48.790;9.198;2022-09-09T08:50:58;171.60;;;68.00;;
13083;SDS011;6608;48.790;9.198;2022-09-09T08:53:28;174.80;;;68.17;;
13083;SDS011;6608;48.790;9.198;2022-09-09T08:55:56;170.77;;;67.40;;
13083;SDS011;6608;48.790;9.198;2022-09-09T08:58:25;169.47;;;68.23;;
13083;SDS011;6608;48.790;9.198;2022-09-09T09:00:58;172.50;;;67.73;;
13083;SDS011;6608;48.790;9.198;2022-09-09T09:03:29;173.17;;;68.57;;
13083;SDS011;6608;48.790;9.198;2022-09-09T09:06:01;170.73;;;67.97;;
13083;SDS011;6608;48.790;9.198;2022-09-09T09:08:33;171.23;;;68.80;;
13083;SDS011;6608;48.790;9.198;2022-09-09T09:11:03;168.43;;;68.47;;
13083;SDS011;6608;48.790;9.198;2022-09-09T09:13:32;172.60;;;69.10;;
13083;SDS011;6608;48.790;9.198;2022-09-09T09:16:02;169.90;;;67.37;;
13083;SDS011;6608;48.790;9.198;2022-09-09T09:18:32;171.03;;;68.53;;
13083;SDS011;6608;48.790;9.198;2022-09-09T09:21:03;168.93;;;67.37;;
13083;SDS011;6608;48.790;9.198;2022-09-09T09:23:34;170.27;;;68.17;;
13083;SDS011;6608;48.790;9.198;2022-09-09T09:26:05;171.83;;;67.43;;
13083;SDS011;6608;48.790;9.198;2022-09-09T09:28:33;167.70;;;67.13;;
13083;SDS011;6608;48.790;9.198;2022-09-09T09:31:01;167.60;;;66.17;;
13083;SDS011;6608;48.790;9.198;2022-09-09T09:33:32;172.70;;;66.00;;
13083;SDS011;6608;48.790;9.198;2022-09-09T09:36:03;171.60;;;67.93;;
13083;SDS011;6608;48.790;9.198;2022-09-09T09:38:32;173.63;;;66.30;;
13083;SDS011;6608;48.790;9.198;2022-09-09T09:40:59;174.23;;;67.80;;
13083;SDS011;6608;48.790;9.198;2022-09-09T09:43:26;166.53;;;65.00;;
13083;SDS011;6608;48.790;9.198;2022-09-09T09:45:53;168.97;;;66.00;;
13083;SDS011;6608;48.790;9.198;2022-09-09T09:48:20;167.53;;;66.63;;
13083;SDS011;6608;48.790;9.198;2022-09-09T09:50:48;167.60;;;67.13;;
13083;SDS011;6608;48.790;9.198;2022-09-09T09:53:21;166.37;;;66.23;;
13083;SDS011;6608;48.790;9.198;2022-09-09T09:55:50;167.13;;;66.93;;
13083;SDS011;6608;48.790;9.198;2022-09-09T09:58:19;168.97;;;66.43;;
13083;SDS011;6608;48.790;9.198;2022-09-09T10:00:48;167.53;;;66.57;;
13083;SDS011;6608;48.790;9.198;2022-09-09T10:03:20;168.13;;;67.43;;
13083;SDS011;6608;48.790;9.198;2022-09-09T10:05:47;171.70;;;67.40;;
13083;SDS011;6608;48.790;9.198;2022-09-09T10:08:14;168.60;;;67.63;;
13083;SDS011;6608;48.790;9.198;2022-09-09T10:10:47;169.80;;;67.60;;
13083;SDS011;6608;48.790;9.198;2022-09-09T10:13:18;169.70;;;68.10;;
13083;SDS011;6608;48.790;9.198;2022-09-09T10:15:48;168.37;;;68.53;;
13083;SDS011;6608;48.790;9.198;2022-09-09T10:18:20;168.80;;;69.00;;
13083;SDS011;6608;48.790;9.198;2022-09-09T10:20:51;171.43;;;70.60;;
13083;SDS011;6608;48.790;9.198;2022-09-09T10:23:24;170.00;;;69.17;;
13083;SDS011;6608;48.790;9.198;2022-09-09T10:26:00;171.73;;;70.23;;
13083;SDS011;6608;48.790;9.198;2022-09-09T10:28:34;169.57;;;70.50;;
13083;SDS011;6608;48.790;9.198;2022-09-09T10:31:06;173.47;;;71.30;;
13083;SDS011;6608;48.790;9.198;2022-09-09T10:33:41;171.57;;;70.20;;
13083;SDS011;6608;48.790;9.198;2022-09-09T10:36:13;173.33;;;69.53;;
13083;SDS011;6608;48.790;9.198;2022-09-09T10:38:40;173.00;;;70.70;;
13083;SDS011;6608;48.790;9.198;2022-09-09T10:41:19;170.87;;;69.80;;
13083;SDS011;6608;48.790;9.198;2022-09-09T10:46:38;170.77;;;68.90;;
13083;SDS011;6608;48.790;9.198;2022-09-09T10:49:10;168.13;;;68.57;;
13083;SDS011;6608;48.790;9.198;2022-09-09T10:51:43;169.77;;;69.00;;
13083;SDS011;6608;48.790;9.198;2022-09-09T10:54:23;171.20;;;69.87;;
13083;SDS011;6608;48.790;9.198;2022-09-09T10:56:52;178.40;;;69.60;;
13083;SDS011;6608;48.790;9.198;2022-09-09T10:59:22;172.30;;;68.30;;
13083;SDS011;6608;48.790;9.198;2022-09-09T11:01:52;170.27;;;67.60;;
13083;SDS011;6608;48.790;9.198;2022-09-09T11:04:21;172.20;;;69.20;;
13083;SDS011;6608;48.790;9.198;2022-09-09T11:06:49;171.20;;;68.50;;
13083;SDS011;6608;48.790;9.198;2022-09-09T11:09:18;171.97;;;68.53;;
13083;SDS011;6608;48.790;9.198;2022-09-09T11:11:46;170.63;;;69.07;;
13083;SDS011;6608;48.790;9.198;2022-09-09T11:14:18;171.67;;;69.87;;
13083;SDS011;6608;48.790;9.198;2022-09-09T11:16:46;170.43;;;70.97;;
13083;SDS011;6608;48.790;9.198;2022-09-09T11:19:16;170.00;;;68.40;;
13083;SDS011;6608;48.790;9.198;2022-09-09T11:21:44;170.83;;;68.37;;
13083;SDS011;6608;48.790;9.198;2022-09-09T11:24:13;171.27;;;68.43;;
13083;SDS011;6608;48.790;9.198;2022-09-09T11:26:43;173.83;;;68.63;;
13083;SDS011;6608;48.790;9.198;2022-09-09T11:31:58;170.17;;;68.23;;
13083;SDS011;6608;48.790;9.198;2022-09-09T11:34:30;171.33;;;70.30;;
13083;SDS011;6608;48.790;9.198;2022-09-09T11:37:06;169.53;;;67.10;;
13083;SDS011;6608;48.790;9.198;2022-09-09T11:42:19;169.80;;;66.47;;
13083;SDS011;6608;48.790;9.198;2022-09-09T11:44:46;172.97;;;66.77;;
13083;SDS011;6608;48.790;9.198;2022-09-09T11:47:19;169.47;;;67.60;;
13083;SDS011;6608;48.790;9.198;2022-09-09T11:49:46;176.30;;;72.93;;
13083;SDS011;6608;48.790;9.198;2022-09-09T11:52:19;169.63;;;66.60;;
13083;SDS011;6608;48.790;9.198;2022-09-09T11:54:47;169.83;;;66.80;;
13083;SDS011;6608;48.790;9.198;2022-09-09T11:57:17;169.07;;;68.37;;
13083;SDS011;6608;48.790;9.198;2022-09-09T11:59:50;166.40;;;67.13;;
13083;SDS011;6608;48.790;9.198;2022-09-09T12:02:20;168.73;;;66.30;;
13083;SDS011;6608;48.790;9.198;2022-09-09T12:04:49;171.60;;;67.67;;
13083;SDS011;6608;48.790;9.198;2022-09-09T12:07:28;166.83;;;67.00;;
13083;SDS011;6608;48.790;9.198;2022-09-09T12:09:56;166.53;;;66.87;;
13083;SDS011;6608;48.790;9.198;2022-09-09T12:12:26;165.77;;;66.73;;
13083;SDS011;6608;48.790;9.198;2022-09-09T12:14:57;166.10;;;67.30;;
13083;SDS011;6608;48.790;9.198;2022-09-09T12:17:26;166.53;;;67.33;;
13083;SDS011;6608;48.790;9.198;2022-09-09T12:19:59;167.37;;;67.80;;
13083;SDS011;6608;48.790;9.198;2022-09-09T12:22:30;170.53;;;68.43;;
13083;SDS011;6608;48.790;9.198;2022-09-09T12:25:00;167.30;;;68.57;;
13083;SDS011;6608;48.790;9.198;2022-09-09T12:27:31;170.90;;;68.73;;
13083;SDS011;6608;48.790;9.198;2022-09-09T12:30:01;169.33;;;68.33;;
13083;SDS011;6608;48.790;9.198;2022-09-09T12:32:30;168.03;;;68.70;;
13083;SDS011;6608;48.790;9.198;2022-09-09T12:34:57;169.83;;;71.03;;
13083;SDS011;6608;48.790;9.198;2022-09-09T12:37:27;173.17;;;71.30;;
13083;SDS011;6608;48.790;9.198;2022-09-09T12:39:55;169.17;;;70.07;;
13083;SDS011;6608;48.790;9.198;2022-09-09T12:42:22;170.43;;;70.67;;
13083;SDS011;6608;48.790;9.198;2022-09-09T12:44:53;174.80;;;72.13;;
13083;SDS011;6608;48.790;9.198;2022-09-09T12:47:20;172.33;;;71.73;;
13083;SDS011;6608;48.790;9.198;2022-09-09T12:49:49;172.33;;;71.10;;
13083;SDS011;6608;48.790;9.198;2022-09-09T12:52:17;171.50;;;70.17;;
13083;SDS011;6608;48.790;9.198;2022-09-09T12:54:46;176.87;;;72.33;;
13083;SDS011;6608;48.790;9.198;2022-09-09T12:57:13;170.47;;;69.67;;
13083;SDS011;6608;48.790;9.198;2022-09-09T12:59:40;169.97;;;69.50;;
13083;SDS011;6608;48.790;9.198;2022-09-09T13:02:11;169.90;;;70.53;;
13083;SDS011;6608;48.790;9.198;2022-09-09T13:04:42;169.27;;;68.83;;
13083;SDS011;6608;48.790;9.198;2022-09-09T13:07:10;170.63;;;70.63;;
13083;SDS011;6608;48.790;9.198;2022-09-09T13:09:37;173.27;;;70.87;;
13083;SDS011;6608;48.790;9.198;2022-09-09T13:12:04;170.20;;;70.70;;
13083;SDS011;6608;48.790;9.198;2022-09-09T13:14:31;170.07;;;70.63;;
13083;SDS011;6608;48.790;9.198;2022-09-09T13:17:00;171.63;;;70.00;;
13083;SDS011;6608;48.790;9.198;2022-09-09T13:19:28;168.27;;;68.97;;
13083;SDS011;6608;48.790;9.198;2022-09-09T13:21:56;170.27;;;71.00;;
13083;SDS011;6608;48.790;9.198;2022-09-09T13:24:29;168.30;;;68.77;;
13083;SDS011;6608;48.790;9.198;2022-09-09T13:26:56;173.30;;;71.57;;
13083;SDS011;6608;48.790;9.198;2022-09-09T13:29:23;168.30;;;68.90;;
13083;SDS011;6608;48.790;9.198;2022-09-09T13:31:50;171.90;;;72.10;;
13083;SDS011;6608;48.790;9.198;2022-09-09T13:34:26;170.67;;;71.03;;
13083;SDS011;6608;48.790;9.198;2022-09-09T13:36:58;169.73;;;69.47;;
13083;SDS011;6608;48.790;9.198;2022-09-09T13:39:26;169.77;;;68.87;;
13083;SDS011;6608;48.790;9.198;2022-09-09T13:41:54;171.00;;;68.47;;
13083;SDS011;6608;48.790;9.198;2022-09-09T13:44:21;170.27;;;69.27;;
13083;SDS011;6608;48.790;9.198;2022-09-09T13:46:59;170.33;;;69.13;;
13083;SDS011;6608;48.790;9.198;2022-09-09T13:49:27;169.67;;;68.67;;
13083;SDS011;6608;48.790;9.198;2022-09-09T13:52:02;172.37;;;67.97;;
13083;SDS011;6608;48.790;9.198;2022-09-09T13:54:29;169.10;;;68.60;;
13083;SDS011;6608;48.790;9.198;2022-09-09T13:56:57;169.00;;;67.20;;
13083;SDS011;6608;48.790;9.198;2022-09-09T13:59:24;169.40;;;67.50;;
13083;SDS011;6608;48.790;9.198;2022-09-09T14:01:51;173.67;;;69.77;;
13083;SDS011;6608;48.790;9.198;2022-09-09T14:04:17;172.33;;;68.93;;
13083;SDS011;6608;48.790;9.198;2022-09-09T14:06:45;170.97;;;69.87;;
13083;SDS011;6608;48.790;9.198;2022-09-09T14:09:18;168.43;;;67.53;;
13083;SDS011;6608;48.790;9.198;2022-09-09T14:11:45;172.53;;;70.27;;
13083;SDS011;6608;48.790;9.198;2022-09-09T14:14:13;170.20;;;68.37;;
13083;SDS011;6608;48.790;9.198;2022-09-09T14:16:39;167.50;;;67.97;;
13083;SDS011;6608;48.790;9.198;2022-09-09T14:19:05;167.20;;;67.33;;
13083;SDS011;6608;48.790;9.198;2022-09-09T14:21:32;168.50;;;67.60;;
13083;SDS011;6608;48.790;9.198;2022-09-09T14:23:58;167.20;;;67.20;;
13083;SDS011;6608;48.790;9.198;2022-09-09T14:26:24;168.27;;;68.43;;
13083;SDS011;6608;48.790;9.198;2022-09-09T14:28:51;168.40;;;68.10;;
13083;SDS011;6608;48.790;9.198;2022-09-09T14:31:19;167.80;;;68.37;;
13083;SDS011;6608;48.790;9.198;2022-09-09T14:33:45;168.70;;;67.60;;
13083;SDS011;6608;48.790;9.198;2022-09-09T14:36:12;169.53;;;68.93;;
13083;SDS011;6608;48.790;9.198;2022-09-09T14:38:38;168.03;;;67.70;;